sensor_id;sensor_type;location;lat;lon;timestamp;P1;durP1;ratioP1;P2;durP2;ratioP2
60488;SDS011;46331;49.252;8.904;2022-12-26T00:00:30;12.97;;;6.43;;
60488;SDS011;46331;49.252;8.904;2022-12-26T00:01:11;12.88;;;6.57;;
60488;SDS011;46331;49.252;8.904;2022-12-26T00:01:53;14.18;;;6.63;;
60488;SDS011;46331;49.252;8.904;2022-12-26T00:02:34;12.02;;;6.40;;
60488;SDS011;46331;49.252;8.904;2022-12-26T00:03:15;11.87;;;6.37;;
60488;SDS011;46331;49.252;8.904;2022-12-26T00:03:55;12.43;;;6.35;;
60488;SDS011;46331;49.252;8.904;2022-12-26T00:04:36;10.57;;;5.83;;
60488;SDS011;46331;49.252;8.904;2022-12-26T00:05:17;15.82;;;6.50;;
60488;SDS011;46331;49.252;8.904;2022-12-26T00:05:57;13.67;;;6.73;;
60488;SDS011;46331;49.252;8.904;2022-12-26T00:06:38;14.15;;;6.38;;
60488;SDS011;46331;49.252;8.904;2022-12-26T00:07:18;13.00;;;6.00;;
60488;SDS011;46331;49.252;8.904;2022-12-26T00:07:59;13.35;;;6.38;;
60488;SDS011;46331;49.252;8.904;2022-12-26T00:08:40;13.10;;;6.77;;
60488;SDS011;46331;49.252;8.904;2022-12-26T00:09:22;12.02;;;6.25;;
60488;SDS011;46331;49.252;8.904;2022-12-26T00:10:03;11.05;;;5.97;;
60488;SDS011;46331;49.252;8.904;2022-12-26T00:10:43;13.73;;;6.10;;
60488;SDS011;46331;49.252;8.904;2022-12-26T00:11:24;13.27;;;6.43;;
60488;SDS011;46331;49.252;8.904;2022-12-26T00:12:05;11.32;;;6.22;;
60488;SDS011;46331;49.252;8.904;2022-12-26T00:12:46;13.13;;;6.30;;
60488;SDS011;46331;49.252;8.904;2022-12-26T00:13:29;11.77;;;5.40;;
60488;SDS011;46331;49.252;8.904;2022-12-26T00:14:11;11.55;;;5.90;;
60488;SDS011;46331;49.252;8.904;2022-12-26T00:14:53;14.27;;;6.90;;
60488;SDS011;46331;49.252;8.904;2022-12-26T00:15:34;12.10;;;5.60;;
60488;SDS011;46331;49.252;8.904;2022-12-26T00:16:15;12.60;;;5.80;;
60488;SDS011;46331;49.252;8.904;2022-12-26T00:16:57;13.43;;;6.20;;
60488;SDS011;46331;49.252;8.904;2022-12-26T00:17:38;11.47;;;5.90;;
60488;SDS011;46331;49.252;8.904;2022-12-26T00:18:19;12.95;;;5.88;;
60488;SDS011;46331;49.252;8.904;2022-12-26T00:19:00;12.00;;;6.40;;
60488;SDS011;46331;49.252;8.904;2022-12-26T00:19:42;12.02;;;6.25;;
60488;SDS011;46331;49.252;8.904;2022-12-26T00:20:24;11.38;;;5.50;;
60488;SDS011;46331;49.252;8.904;2022-12-26T00:21:05;12.02;;;5.55;;
60488;SDS011;46331;49.252;8.904;2022-12-26T00:21:46;12.93;;;6.07;;
60488;SDS011;46331;49.252;8.904;2022-12-26T00:22:27;11.80;;;5.03;;
60488;SDS011;46331;49.252;8.904;2022-12-26T00:23:07;10.10;;;5.07;;
60488;SDS011;46331;49.252;8.904;2022-12-26T00:23:48;13.02;;;5.72;;
60488;SDS011;46331;49.252;8.904;2022-12-26T00:24:29;11.83;;;5.63;;
60488;SDS011;46331;49.252;8.904;2022-12-26T00:25:09;11.93;;;5.15;;
60488;SDS011;46331;49.252;8.904;2022-12-26T00:25:50;12.63;;;5.57;;
60488;SDS011;46331;49.252;8.904;2022-12-26T00:26:31;12.23;;;4.97;;
60488;SDS011;46331;49.252;8.904;2022-12-26T00:27:12;10.52;;;5.25;;
60488;SDS011;46331;49.252;8.904;2022-12-26T00:27:53;9.03;;;4.80;;
60488;SDS011;46331;49.252;8.904;2022-12-26T00:28:33;11.67;;;5.40;;
60488;SDS011;46331;49.252;8.904;2022-12-26T00:29:15;13.35;;;5.43;;
60488;SDS011;46331;49.252;8.904;2022-12-26T00:29:55;10.80;;;5.30;;
60488;SDS011;46331;49.252;8.904;2022-12-26T00:30:36;11.93;;;4.90;;
60488;SDS011;46331;49.252;8.904;2022-12-26T00:31:19;12.00;;;5.47;;
60488;SDS011;46331;49.252;8.904;2022-12-26T00:32:01;12.77;;;6.53;;
60488;SDS011;46331;49.252;8.904;2022-12-26T00:32:42;12.68;;;6.10;;
60488;SDS011;46331;49.252;8.904;2022-12-26T00:33:23;12.80;;;5.83;;
60488;SDS011;46331;49.252;8.904;2022-12-26T00:34:03;13.95;;;6.05;;
60488;SDS011;46331;49.252;8.904;2022-12-26T00:34:44;15.02;;;5.95;;
60488;SDS011;46331;49.252;8.904;2022-12-26T00:35:24;12.30;;;6.30;;
60488;SDS011;46331;49.252;8.904;2022-12-26T00:36:12;15.00;;;5.97;;
60488;SDS011;46331;49.252;8.904;2022-12-26T00:36:55;16.75;;;6.35;;
60488;SDS011;46331;49.252;8.904;2022-12-26T00:37:35;11.73;;;5.88;;
60488;SDS011;46331;49.252;8.904;2022-12-26T00:38:16;14.10;;;6.37;;
60488;SDS011;46331;49.252;8.904;2022-12-26T00:38:57;15.63;;;6.32;;
60488;SDS011;46331;49.252;8.904;2022-12-26T00:39:39;12.37;;;5.57;;
60488;SDS011;46331;49.252;8.904;2022-12-26T00:40:19;14.27;;;6.05;;
60488;SDS011;46331;49.252;8.904;2022-12-26T00:41:00;14.90;;;5.57;;
60488;SDS011;46331;49.252;8.904;2022-12-26T00:41:41;14.65;;;5.53;;
60488;SDS011;46331;49.252;8.904;2022-12-26T00:42:21;12.93;;;6.10;;
60488;SDS011;46331;49.252;8.904;2022-12-26T00:43:02;11.45;;;5.60;;
60488;SDS011;46331;49.252;8.904;2022-12-26T00:43:42;12.67;;;5.40;;
60488;SDS011;46331;49.252;8.904;2022-12-26T00:44:23;10.88;;;5.35;;
60488;SDS011;46331;49.252;8.904;2022-12-26T00:45:04;11.70;;;5.80;;
60488;SDS011;46331;49.252;8.904;2022-12-26T00:45:46;9.98;;;5.03;;
60488;SDS011;46331;49.252;8.904;2022-12-26T00:46:28;11.83;;;5.43;;
60488;SDS011;46331;49.252;8.904;2022-12-26T00:47:08;10.63;;;5.35;;
60488;SDS011;46331;49.252;8.904;2022-12-26T00:47:49;11.80;;;5.00;;
60488;SDS011;46331;49.252;8.904;2022-12-26T00:48:30;11.30;;;5.35;;
60488;SDS011;46331;49.252;8.904;2022-12-26T00:49:10;12.70;;;5.57;;
60488;SDS011;46331;49.252;8.904;2022-12-26T00:49:52;9.82;;;5.28;;
60488;SDS011;46331;49.252;8.904;2022-12-26T00:50:33;11.03;;;5.47;;
60488;SDS011;46331;49.252;8.904;2022-12-26T00:51:14;13.43;;;5.70;;
60488;SDS011;46331;49.252;8.904;2022-12-26T00:51:54;13.10;;;5.80;;
60488;SDS011;46331;49.252;8.904;2022-12-26T00:52:35;12.23;;;5.85;;
60488;SDS011;46331;49.252;8.904;2022-12-26T00:53:15;12.00;;;5.50;;
60488;SDS011;46331;49.252;8.904;2022-12-26T00:53:56;11.68;;;5.38;;
60488;SDS011;46331;49.252;8.904;2022-12-26T00:54:36;12.33;;;5.57;;
60488;SDS011;46331;49.252;8.904;2022-12-26T00:55:17;10.75;;;5.57;;
60488;SDS011;46331;49.252;8.904;2022-12-26T00:55:58;13.20;;;5.97;;
60488;SDS011;46331;49.252;8.904;2022-12-26T00:56:38;12.73;;;5.47;;
60488;SDS011;46331;49.252;8.904;2022-12-26T00:57:19;10.90;;;5.57;;
60488;SDS011;46331;49.252;8.904;2022-12-26T00:57:59;11.37;;;6.17;;
60488;SDS011;46331;49.252;8.904;2022-12-26T00:58:40;11.75;;;5.32;;
60488;SDS011;46331;49.252;8.904;2022-12-26T00:59:21;12.23;;;5.93;;
60488;SDS011;46331;49.252;8.904;2022-12-26T01:00:02;8.93;;;5.00;;
60488;SDS011;46331;49.252;8.904;2022-12-26T01:00:43;11.70;;;5.40;;
60488;SDS011;46331;49.252;8.904;2022-12-26T01:01:24;11.90;;;5.25;;
60488;SDS011;46331;49.252;8.904;2022-12-26T01:02:05;11.17;;;5.53;;
60488;SDS011;46331;49.252;8.904;2022-12-26T01:03:06;11.68;;;5.57;;
60488;SDS011;46331;49.252;8.904;2022-12-26T01:03:48;10.25;;;5.00;;
60488;SDS011;46331;49.252;8.904;2022-12-26T01:04:29;10.73;;;5.65;;
60488;SDS011;46331;49.252;8.904;2022-12-26T01:05:10;10.90;;;5.27;;
60488;SDS011;46331;49.252;8.904;2022-12-26T01:05:51;9.55;;;4.72;;
60488;SDS011;46331;49.252;8.904;2022-12-26T01:06:31;10.97;;;5.50;;
60488;SDS011;46331;49.252;8.904;2022-12-26T01:07:12;11.70;;;4.63;;
60488;SDS011;46331;49.252;8.904;2022-12-26T01:07:52;9.53;;;4.63;;
60488;SDS011;46331;49.252;8.904;2022-12-26T01:08:33;10.63;;;5.03;;
60488;SDS011;46331;49.252;8.904;2022-12-26T01:09:14;16.40;;;5.17;;
60488;SDS011;46331;49.252;8.904;2022-12-26T01:09:55;13.43;;;4.88;;
60488;SDS011;46331;49.252;8.904;2022-12-26T01:10:38;9.35;;;4.00;;
60488;SDS011;46331;49.252;8.904;2022-12-26T01:11:20;9.30;;;4.13;;
60488;SDS011;46331;49.252;8.904;2022-12-26T01:12:19;8.00;;;4.03;;
60488;SDS011;46331;49.252;8.904;2022-12-26T01:13:00;8.68;;;3.70;;
60488;SDS011;46331;49.252;8.904;2022-12-26T01:13:41;8.50;;;3.58;;
60488;SDS011;46331;49.252;8.904;2022-12-26T01:14:22;10.03;;;4.30;;
60488;SDS011;46331;49.252;8.904;2022-12-26T01:15:04;9.30;;;4.30;;
60488;SDS011;46331;49.252;8.904;2022-12-26T01:15:46;10.60;;;4.60;;
60488;SDS011;46331;49.252;8.904;2022-12-26T01:16:28;8.32;;;4.30;;
60488;SDS011;46331;49.252;8.904;2022-12-26T01:17:09;8.53;;;4.20;;
60488;SDS011;46331;49.252;8.904;2022-12-26T01:17:49;9.07;;;4.27;;
60488;SDS011;46331;49.252;8.904;2022-12-26T01:18:30;11.05;;;4.40;;
60488;SDS011;46331;49.252;8.904;2022-12-26T01:19:11;7.82;;;4.05;;
60488;SDS011;46331;49.252;8.904;2022-12-26T01:19:52;9.13;;;4.38;;
60488;SDS011;46331;49.252;8.904;2022-12-26T01:20:34;9.57;;;4.20;;
60488;SDS011;46331;49.252;8.904;2022-12-26T01:21:18;9.60;;;4.03;;
60488;SDS011;46331;49.252;8.904;2022-12-26T01:21:58;8.45;;;4.03;;
60488;SDS011;46331;49.252;8.904;2022-12-26T01:22:39;8.43;;;3.63;;
60488;SDS011;46331;49.252;8.904;2022-12-26T01:23:19;8.90;;;3.90;;
60488;SDS011;46331;49.252;8.904;2022-12-26T01:24:00;8.50;;;3.77;;
60488;SDS011;46331;49.252;8.904;2022-12-26T01:24:41;9.43;;;3.88;;
60488;SDS011;46331;49.252;8.904;2022-12-26T01:25:22;7.93;;;4.33;;
60488;SDS011;46331;49.252;8.904;2022-12-26T01:26:04;8.03;;;3.90;;
60488;SDS011;46331;49.252;8.904;2022-12-26T01:26:45;8.80;;;3.92;;
60488;SDS011;46331;49.252;8.904;2022-12-26T01:27:25;8.43;;;3.83;;
60488;SDS011;46331;49.252;8.904;2022-12-26T01:28:06;7.30;;;3.63;;
60488;SDS011;46331;49.252;8.904;2022-12-26T01:28:47;8.50;;;4.00;;
60488;SDS011;46331;49.252;8.904;2022-12-26T01:29:28;8.38;;;4.07;;
60488;SDS011;46331;49.252;8.904;2022-12-26T01:30:08;8.37;;;3.57;;
60488;SDS011;46331;49.252;8.904;2022-12-26T01:30:50;7.20;;;3.80;;
60488;SDS011;46331;49.252;8.904;2022-12-26T01:31:31;7.97;;;3.40;;
60488;SDS011;46331;49.252;8.904;2022-12-26T01:32:11;7.97;;;3.87;;
60488;SDS011;46331;49.252;8.904;2022-12-26T01:32:52;8.00;;;3.70;;
60488;SDS011;46331;49.252;8.904;2022-12-26T01:33:32;10.00;;;4.17;;
60488;SDS011;46331;49.252;8.904;2022-12-26T01:34:16;8.13;;;3.67;;
60488;SDS011;46331;49.252;8.904;2022-12-26T01:34:56;8.87;;;3.70;;
60488;SDS011;46331;49.252;8.904;2022-12-26T01:35:37;8.90;;;3.35;;
60488;SDS011;46331;49.252;8.904;2022-12-26T01:36:17;9.07;;;4.00;;
60488;SDS011;46331;49.252;8.904;2022-12-26T01:36:58;7.03;;;3.55;;
60488;SDS011;46331;49.252;8.904;2022-12-26T01:37:38;9.73;;;3.80;;
60488;SDS011;46331;49.252;8.904;2022-12-26T01:38:19;7.70;;;3.28;;
60488;SDS011;46331;49.252;8.904;2022-12-26T01:39:00;10.87;;;3.67;;
60488;SDS011;46331;49.252;8.904;2022-12-26T01:39:41;7.85;;;3.30;;
60488;SDS011;46331;49.252;8.904;2022-12-26T01:40:22;8.27;;;3.30;;
60488;SDS011;46331;49.252;8.904;2022-12-26T01:41:02;6.33;;;3.10;;
60488;SDS011;46331;49.252;8.904;2022-12-26T01:41:58;6.75;;;3.30;;
60488;SDS011;46331;49.252;8.904;2022-12-26T01:42:39;7.95;;;3.40;;
60488;SDS011;46331;49.252;8.904;2022-12-26T01:43:20;10.18;;;3.60;;
60488;SDS011;46331;49.252;8.904;2022-12-26T01:44:02;7.63;;;3.67;;
60488;SDS011;46331;49.252;8.904;2022-12-26T01:45:42;7.63;;;3.80;;
60488;SDS011;46331;49.252;8.904;2022-12-26T01:46:29;8.50;;;3.92;;
60488;SDS011;46331;49.252;8.904;2022-12-26T01:47:18;8.27;;;3.38;;
60488;SDS011;46331;49.252;8.904;2022-12-26T01:48:02;7.50;;;3.40;;
60488;SDS011;46331;49.252;8.904;2022-12-26T01:48:43;8.23;;;3.40;;
60488;SDS011;46331;49.252;8.904;2022-12-26T01:50:30;8.43;;;3.80;;
60488;SDS011;46331;49.252;8.904;2022-12-26T01:51:14;10.02;;;3.72;;
60488;SDS011;46331;49.252;8.904;2022-12-26T01:51:58;8.32;;;3.67;;
60488;SDS011;46331;49.252;8.904;2022-12-26T01:52:43;7.53;;;4.03;;
60488;SDS011;46331;49.252;8.904;2022-12-26T01:53:33;9.00;;;3.80;;
60488;SDS011;46331;49.252;8.904;2022-12-26T01:54:21;9.70;;;4.10;;
60488;SDS011;46331;49.252;8.904;2022-12-26T01:55:03;7.72;;;3.55;;
60488;SDS011;46331;49.252;8.904;2022-12-26T01:55:49;9.03;;;3.73;;
60488;SDS011;46331;49.252;8.904;2022-12-26T01:56:38;9.98;;;3.55;;
60488;SDS011;46331;49.252;8.904;2022-12-26T01:57:26;7.57;;;3.70;;
60488;SDS011;46331;49.252;8.904;2022-12-26T01:58:15;7.53;;;3.65;;
60488;SDS011;46331;49.252;8.904;2022-12-26T01:59:02;7.28;;;3.40;;
60488;SDS011;46331;49.252;8.904;2022-12-26T01:59:46;7.03;;;3.60;;
60488;SDS011;46331;49.252;8.904;2022-12-26T02:00:29;7.10;;;3.03;;
60488;SDS011;46331;49.252;8.904;2022-12-26T02:01:11;6.97;;;3.35;;
60488;SDS011;46331;49.252;8.904;2022-12-26T02:01:52;8.50;;;3.40;;
60488;SDS011;46331;49.252;8.904;2022-12-26T02:02:36;7.00;;;3.50;;
60488;SDS011;46331;49.252;8.904;2022-12-26T02:03:37;9.27;;;4.82;;
60488;SDS011;46331;49.252;8.904;2022-12-26T02:04:43;10.45;;;4.18;;
60488;SDS011;46331;49.252;8.904;2022-12-26T02:05:44;9.15;;;4.22;;
60488;SDS011;46331;49.252;8.904;2022-12-26T02:06:25;9.00;;;3.97;;
60488;SDS011;46331;49.252;8.904;2022-12-26T02:07:06;7.95;;;3.50;;
60488;SDS011;46331;49.252;8.904;2022-12-26T02:07:47;6.60;;;3.20;;
60488;SDS011;46331;49.252;8.904;2022-12-26T02:08:29;7.78;;;3.63;;
60488;SDS011;46331;49.252;8.904;2022-12-26T02:09:12;6.82;;;3.28;;
60488;SDS011;46331;49.252;8.904;2022-12-26T02:09:53;6.53;;;3.20;;
60488;SDS011;46331;49.252;8.904;2022-12-26T02:10:46;7.13;;;3.10;;
60488;SDS011;46331;49.252;8.904;2022-12-26T02:11:39;6.03;;;2.90;;
60488;SDS011;46331;49.252;8.904;2022-12-26T02:12:28;6.22;;;2.88;;
60488;SDS011;46331;49.252;8.904;2022-12-26T02:13:10;8.02;;;2.90;;
60488;SDS011;46331;49.252;8.904;2022-12-26T02:13:51;7.15;;;3.13;;
60488;SDS011;46331;49.252;8.904;2022-12-26T02:14:33;8.73;;;3.38;;
60488;SDS011;46331;49.252;8.904;2022-12-26T02:15:16;6.13;;;3.00;;
60488;SDS011;46331;49.252;8.904;2022-12-26T02:16:00;7.60;;;3.30;;
60488;SDS011;46331;49.252;8.904;2022-12-26T02:16:42;9.37;;;3.20;;
60488;SDS011;46331;49.252;8.904;2022-12-26T02:17:24;6.80;;;3.28;;
60488;SDS011;46331;49.252;8.904;2022-12-26T02:18:05;8.02;;;3.00;;
60488;SDS011;46331;49.252;8.904;2022-12-26T02:18:45;9.52;;;3.38;;
60488;SDS011;46331;49.252;8.904;2022-12-26T02:20:51;8.20;;;3.22;;
60488;SDS011;46331;49.252;8.904;2022-12-26T02:27:17;5.95;;;3.00;;
60488;SDS011;46331;49.252;8.904;2022-12-26T02:34:08;7.63;;;2.95;;
60488;SDS011;46331;49.252;8.904;2022-12-26T02:34:58;7.80;;;2.75;;
60488;SDS011;46331;49.252;8.904;2022-12-26T02:40:43;6.50;;;2.87;;
60488;SDS011;46331;49.252;8.904;2022-12-26T02:42:51;7.25;;;2.80;;
60488;SDS011;46331;49.252;8.904;2022-12-26T02:44:24;6.55;;;2.97;;
60488;SDS011;46331;49.252;8.904;2022-12-26T02:45:37;5.93;;;2.50;;
60488;SDS011;46331;49.252;8.904;2022-12-26T02:46:43;7.28;;;2.95;;
60488;SDS011;46331;49.252;8.904;2022-12-26T02:48:29;6.82;;;2.90;;
60488;SDS011;46331;49.252;8.904;2022-12-26T02:53:07;6.22;;;2.63;;
60488;SDS011;46331;49.252;8.904;2022-12-26T02:55:43;6.68;;;2.70;;
60488;SDS011;46331;49.252;8.904;2022-12-26T02:56:55;6.75;;;2.95;;
60488;SDS011;46331;49.252;8.904;2022-12-26T02:58:05;6.82;;;2.67;;
60488;SDS011;46331;49.252;8.904;2022-12-26T02:59:17;9.52;;;2.67;;
60488;SDS011;46331;49.252;8.904;2022-12-26T03:00:22;11.90;;;2.80;;
60488;SDS011;46331;49.252;8.904;2022-12-26T03:01:23;6.40;;;2.78;;
60488;SDS011;46331;49.252;8.904;2022-12-26T03:02:40;6.38;;;2.85;;
60488;SDS011;46331;49.252;8.904;2022-12-26T03:03:45;6.00;;;2.70;;
60488;SDS011;46331;49.252;8.904;2022-12-26T03:04:48;7.07;;;2.75;;
60488;SDS011;46331;49.252;8.904;2022-12-26T03:05:57;6.70;;;2.80;;
60488;SDS011;46331;49.252;8.904;2022-12-26T03:07:01;6.07;;;2.58;;
60488;SDS011;46331;49.252;8.904;2022-12-26T03:08:11;6.05;;;2.35;;
60488;SDS011;46331;49.252;8.904;2022-12-26T03:09:21;6.22;;;2.70;;
60488;SDS011;46331;49.252;8.904;2022-12-26T03:10:27;5.50;;;2.45;;
60488;SDS011;46331;49.252;8.904;2022-12-26T03:11:29;7.25;;;2.97;;
60488;SDS011;46331;49.252;8.904;2022-12-26T03:12:35;7.10;;;2.67;;
60488;SDS011;46331;49.252;8.904;2022-12-26T03:13:38;7.15;;;2.65;;
60488;SDS011;46331;49.252;8.904;2022-12-26T03:16:45;8.27;;;3.20;;
60488;SDS011;46331;49.252;8.904;2022-12-26T03:17:49;7.88;;;3.00;;
60488;SDS011;46331;49.252;8.904;2022-12-26T03:18:36;7.80;;;3.38;;
60488;SDS011;46331;49.252;8.904;2022-12-26T03:19:21;8.70;;;2.80;;
60488;SDS011;46331;49.252;8.904;2022-12-26T03:20:08;7.30;;;3.08;;
60488;SDS011;46331;49.252;8.904;2022-12-26T03:21:01;7.22;;;3.35;;
60488;SDS011;46331;49.252;8.904;2022-12-26T03:21:43;6.55;;;2.85;;
60488;SDS011;46331;49.252;8.904;2022-12-26T03:23:25;7.63;;;3.07;;
60488;SDS011;46331;49.252;8.904;2022-12-26T03:24:06;7.00;;;3.00;;
60488;SDS011;46331;49.252;8.904;2022-12-26T03:24:50;6.32;;;2.60;;
60488;SDS011;46331;49.252;8.904;2022-12-26T03:25:55;7.78;;;3.83;;
60488;SDS011;46331;49.252;8.904;2022-12-26T03:26:58;5.50;;;2.85;;
60488;SDS011;46331;49.252;8.904;2022-12-26T03:27:39;10.65;;;2.90;;
60488;SDS011;46331;49.252;8.904;2022-12-26T03:28:23;9.73;;;3.17;;
60488;SDS011;46331;49.252;8.904;2022-12-26T03:29:18;6.60;;;2.83;;
60488;SDS011;46331;49.252;8.904;2022-12-26T03:30:19;8.02;;;2.70;;
60488;SDS011;46331;49.252;8.904;2022-12-26T03:31:18;6.47;;;2.80;;
60488;SDS011;46331;49.252;8.904;2022-12-26T03:31:59;7.57;;;2.67;;
60488;SDS011;46331;49.252;8.904;2022-12-26T03:32:42;6.73;;;2.90;;
60488;SDS011;46331;49.252;8.904;2022-12-26T03:34:25;5.90;;;2.55;;
60488;SDS011;46331;49.252;8.904;2022-12-26T03:35:10;5.45;;;2.50;;
60488;SDS011;46331;49.252;8.904;2022-12-26T03:35:52;6.30;;;2.67;;
60488;SDS011;46331;49.252;8.904;2022-12-26T03:37:38;5.53;;;2.28;;
60488;SDS011;46331;49.252;8.904;2022-12-26T03:38:34;8.90;;;2.50;;
60488;SDS011;46331;49.252;8.904;2022-12-26T03:41:59;6.40;;;2.47;;
60488;SDS011;46331;49.252;8.904;2022-12-26T03:43:13;7.15;;;2.60;;
60488;SDS011;46331;49.252;8.904;2022-12-26T03:45:51;5.65;;;2.20;;
60488;SDS011;46331;49.252;8.904;2022-12-26T03:49:36;5.55;;;2.50;;
60488;SDS011;46331;49.252;8.904;2022-12-26T03:50:49;5.63;;;2.13;;
60488;SDS011;46331;49.252;8.904;2022-12-26T03:52:20;9.03;;;2.50;;
60488;SDS011;46331;49.252;8.904;2022-12-26T03:53:34;5.85;;;2.22;;
60488;SDS011;46331;49.252;8.904;2022-12-26T03:54:48;8.00;;;2.35;;
60488;SDS011;46331;49.252;8.904;2022-12-26T03:56:23;6.38;;;2.05;;
60488;SDS011;46331;49.252;8.904;2022-12-26T03:57:33;5.93;;;2.55;;
60488;SDS011;46331;49.252;8.904;2022-12-26T04:00:10;6.68;;;2.65;;
60488;SDS011;46331;49.252;8.904;2022-12-26T04:01:15;8.93;;;2.70;;
60488;SDS011;46331;49.252;8.904;2022-12-26T04:02:17;6.75;;;2.28;;
60488;SDS011;46331;49.252;8.904;2022-12-26T04:03:19;4.80;;;2.08;;
60488;SDS011;46331;49.252;8.904;2022-12-26T04:04:21;5.73;;;2.57;;
60488;SDS011;46331;49.252;8.904;2022-12-26T04:05:25;6.72;;;2.53;;
60488;SDS011;46331;49.252;8.904;2022-12-26T04:06:25;5.70;;;2.45;;
60488;SDS011;46331;49.252;8.904;2022-12-26T04:07:32;6.97;;;2.50;;
60488;SDS011;46331;49.252;8.904;2022-12-26T04:08:44;6.45;;;2.25;;
60488;SDS011;46331;49.252;8.904;2022-12-26T04:09:49;9.13;;;2.67;;
60488;SDS011;46331;49.252;8.904;2022-12-26T04:11:38;6.18;;;2.50;;
60488;SDS011;46331;49.252;8.904;2022-12-26T04:12:42;5.68;;;2.38;;
60488;SDS011;46331;49.252;8.904;2022-12-26T04:15:06;6.75;;;2.75;;
60488;SDS011;46331;49.252;8.904;2022-12-26T04:16:18;6.40;;;2.53;;
60488;SDS011;46331;49.252;8.904;2022-12-26T04:19:05;7.95;;;2.80;;
60488;SDS011;46331;49.252;8.904;2022-12-26T04:20:28;6.78;;;2.63;;
60488;SDS011;46331;49.252;8.904;2022-12-26T04:23:43;6.32;;;2.50;;
60488;SDS011;46331;49.252;8.904;2022-12-26T04:24:49;7.90;;;2.80;;
60488;SDS011;46331;49.252;8.904;2022-12-26T04:26:10;6.25;;;2.45;;
60488;SDS011;46331;49.252;8.904;2022-12-26T04:27:15;6.53;;;2.85;;
60488;SDS011;46331;49.252;8.904;2022-12-26T04:28:18;5.53;;;2.40;;
60488;SDS011;46331;49.252;8.904;2022-12-26T04:29:18;6.18;;;2.53;;
60488;SDS011;46331;49.252;8.904;2022-12-26T04:30:18;9.57;;;2.88;;
60488;SDS011;46331;49.252;8.904;2022-12-26T04:33:57;6.53;;;2.85;;
60488;SDS011;46331;49.252;8.904;2022-12-26T04:35:12;6.72;;;2.88;;
60488;SDS011;46331;49.252;8.904;2022-12-26T04:36:21;6.97;;;2.85;;
60488;SDS011;46331;49.252;8.904;2022-12-26T04:37:28;6.75;;;2.83;;
60488;SDS011;46331;49.252;8.904;2022-12-26T04:38:30;5.13;;;2.25;;
60488;SDS011;46331;49.252;8.904;2022-12-26T04:39:44;6.07;;;2.40;;
60488;SDS011;46331;49.252;8.904;2022-12-26T04:40:48;5.72;;;2.45;;
60488;SDS011;46331;49.252;8.904;2022-12-26T04:41:52;5.20;;;2.47;;
60488;SDS011;46331;49.252;8.904;2022-12-26T04:42:53;6.05;;;2.28;;
60488;SDS011;46331;49.252;8.904;2022-12-26T04:43:54;6.47;;;2.35;;
60488;SDS011;46331;49.252;8.904;2022-12-26T04:45:04;6.78;;;2.58;;
60488;SDS011;46331;49.252;8.904;2022-12-26T04:45:46;8.50;;;2.40;;
60488;SDS011;46331;49.252;8.904;2022-12-26T04:46:27;8.40;;;2.80;;
60488;SDS011;46331;49.252;8.904;2022-12-26T04:47:10;7.20;;;2.83;;
60488;SDS011;46331;49.252;8.904;2022-12-26T04:47:52;6.00;;;2.33;;
60488;SDS011;46331;49.252;8.904;2022-12-26T04:48:51;6.00;;;2.45;;
60488;SDS011;46331;49.252;8.904;2022-12-26T04:49:52;6.97;;;2.67;;
60488;SDS011;46331;49.252;8.904;2022-12-26T04:50:51;7.63;;;2.55;;
60488;SDS011;46331;49.252;8.904;2022-12-26T04:51:32;6.20;;;2.78;;
60488;SDS011;46331;49.252;8.904;2022-12-26T04:52:13;6.33;;;2.83;;
60488;SDS011;46331;49.252;8.904;2022-12-26T04:52:54;8.65;;;3.90;;
60488;SDS011;46331;49.252;8.904;2022-12-26T04:53:37;9.20;;;4.10;;
60488;SDS011;46331;49.252;8.904;2022-12-26T04:54:18;11.35;;;5.03;;
60488;SDS011;46331;49.252;8.904;2022-12-26T04:54:59;9.80;;;4.10;;
60488;SDS011;46331;49.252;8.904;2022-12-26T04:55:39;7.60;;;3.80;;
60488;SDS011;46331;49.252;8.904;2022-12-26T04:56:20;7.97;;;3.80;;
60488;SDS011;46331;49.252;8.904;2022-12-26T04:57:00;7.23;;;3.67;;
60488;SDS011;46331;49.252;8.904;2022-12-26T04:57:41;9.00;;;3.60;;
60488;SDS011;46331;49.252;8.904;2022-12-26T04:58:22;6.30;;;3.08;;
60488;SDS011;46331;49.252;8.904;2022-12-26T04:59:03;6.55;;;3.15;;
60488;SDS011;46331;49.252;8.904;2022-12-26T04:59:44;6.23;;;2.60;;
60488;SDS011;46331;49.252;8.904;2022-12-26T05:00:24;7.40;;;2.50;;
60488;SDS011;46331;49.252;8.904;2022-12-26T05:01:07;6.70;;;2.77;;
60488;SDS011;46331;49.252;8.904;2022-12-26T05:02:07;6.93;;;2.80;;
60488;SDS011;46331;49.252;8.904;2022-12-26T05:03:07;5.25;;;2.28;;
60488;SDS011;46331;49.252;8.904;2022-12-26T05:04:14;5.32;;;2.30;;
60488;SDS011;46331;49.252;8.904;2022-12-26T05:05:14;6.18;;;2.63;;
60488;SDS011;46331;49.252;8.904;2022-12-26T05:06:13;6.68;;;2.55;;
60488;SDS011;46331;49.252;8.904;2022-12-26T05:07:14;5.40;;;2.38;;
60488;SDS011;46331;49.252;8.904;2022-12-26T05:08:20;6.18;;;2.50;;
60488;SDS011;46331;49.252;8.904;2022-12-26T05:09:23;4.75;;;2.00;;
60488;SDS011;46331;49.252;8.904;2022-12-26T05:10:17;5.68;;;2.13;;
60488;SDS011;46331;49.252;8.904;2022-12-26T05:10:59;6.60;;;2.47;;
60488;SDS011;46331;49.252;8.904;2022-12-26T05:11:40;8.68;;;2.63;;
60488;SDS011;46331;49.252;8.904;2022-12-26T05:12:26;5.60;;;2.30;;
60488;SDS011;46331;49.252;8.904;2022-12-26T05:13:07;5.97;;;2.60;;
60488;SDS011;46331;49.252;8.904;2022-12-26T05:13:48;8.00;;;2.70;;
60488;SDS011;46331;49.252;8.904;2022-12-26T05:14:29;7.18;;;2.70;;
60488;SDS011;46331;49.252;8.904;2022-12-26T05:15:11;7.10;;;2.45;;
60488;SDS011;46331;49.252;8.904;2022-12-26T05:15:51;5.78;;;2.50;;
60488;SDS011;46331;49.252;8.904;2022-12-26T05:16:51;6.70;;;2.40;;
60488;SDS011;46331;49.252;8.904;2022-12-26T05:17:50;5.47;;;2.15;;
60488;SDS011;46331;49.252;8.904;2022-12-26T05:18:49;6.63;;;2.50;;
60488;SDS011;46331;49.252;8.904;2022-12-26T05:19:48;5.85;;;2.70;;
60488;SDS011;46331;49.252;8.904;2022-12-26T05:20:48;6.77;;;2.67;;
60488;SDS011;46331;49.252;8.904;2022-12-26T05:21:47;6.80;;;2.55;;
60488;SDS011;46331;49.252;8.904;2022-12-26T05:22:46;7.93;;;2.80;;
60488;SDS011;46331;49.252;8.904;2022-12-26T05:23:45;4.85;;;2.25;;
60488;SDS011;46331;49.252;8.904;2022-12-26T05:24:45;6.28;;;2.63;;
60488;SDS011;46331;49.252;8.904;2022-12-26T05:25:44;6.78;;;2.38;;
60488;SDS011;46331;49.252;8.904;2022-12-26T05:26:46;5.20;;;2.42;;
60488;SDS011;46331;49.252;8.904;2022-12-26T05:27:45;6.57;;;2.28;;
60488;SDS011;46331;49.252;8.904;2022-12-26T05:28:45;5.72;;;2.40;;
60488;SDS011;46331;49.252;8.904;2022-12-26T05:29:29;8.15;;;2.63;;
60488;SDS011;46331;49.252;8.904;2022-12-26T05:30:10;6.27;;;2.30;;
60488;SDS011;46331;49.252;8.904;2022-12-26T05:30:54;5.55;;;1.90;;
60488;SDS011;46331;49.252;8.904;2022-12-26T05:31:34;10.97;;;2.60;;
60488;SDS011;46331;49.252;8.904;2022-12-26T05:32:15;5.82;;;2.08;;
60488;SDS011;46331;49.252;8.904;2022-12-26T05:33:14;7.10;;;2.72;;
60488;SDS011;46331;49.252;8.904;2022-12-26T05:34:13;5.15;;;2.10;;
60488;SDS011;46331;49.252;8.904;2022-12-26T05:34:56;6.17;;;2.13;;
60488;SDS011;46331;49.252;8.904;2022-12-26T05:35:37;6.35;;;2.25;;
60488;SDS011;46331;49.252;8.904;2022-12-26T05:36:19;6.25;;;2.40;;
60488;SDS011;46331;49.252;8.904;2022-12-26T05:37:02;6.47;;;2.47;;
60488;SDS011;46331;49.252;8.904;2022-12-26T05:37:42;6.87;;;2.50;;
60488;SDS011;46331;49.252;8.904;2022-12-26T05:38:23;6.32;;;2.60;;
60488;SDS011;46331;49.252;8.904;2022-12-26T05:39:04;7.70;;;2.70;;
60488;SDS011;46331;49.252;8.904;2022-12-26T05:39:45;6.07;;;2.72;;
60488;SDS011;46331;49.252;8.904;2022-12-26T05:40:26;5.43;;;2.00;;
60488;SDS011;46331;49.252;8.904;2022-12-26T05:41:07;7.32;;;2.40;;
60488;SDS011;46331;49.252;8.904;2022-12-26T05:41:47;5.50;;;2.30;;